sensor_id;sensor_type;location;lat;lon;timestamp;pressure;altitude;pressure_sealevel;temperature;humidity
16461;BME280;8341;42.048;24.650;2023-03-15T00:01:48;96349.44;;;5.57;60.38
16461;BME280;8341;42.048;24.650;2023-03-15T00:04:15;96342.34;;;5.59;60.21
16461;BME280;8341;42.048;24.650;2023-03-15T00:06:42;96343.44;;;5.53;59.53
16461;BME280;8341;42.048;24.650;2023-03-15T00:09:08;96337.13;;;5.56;59.18
16461;BME280;8341;42.048;24.650;2023-03-15T00:11:35;96336.34;;;5.55;58.98
16461;BME280;8341;42.048;24.650;2023-03-15T00:14:02;96329.88;;;5.62;58.51
16461;BME280;8341;42.048;24.650;2023-03-15T00:16:30;96323.81;;;5.67;58.63
16461;BME280;8341;42.048;24.650;2023-03-15T00:18:58;96321.28;;;5.63;58.60
16461;BME280;8341;42.048;24.650;2023-03-15T00:21:25;96326.25;;;5.41;60.71
16461;BME280;8341;42.048;24.650;2023-03-15T00:23:54;96319.03;;;5.38;61.02
16461;BME280;8341;42.048;24.650;2023-03-15T00:26:21;96322.56;;;5.53;60.49
16461;BME280;8341;42.048;24.650;2023-03-15T00:28:48;96322.19;;;5.60;61.97
16461;BME280;8341;42.048;24.650;2023-03-15T00:31:16;96315.31;;;5.59;61.50
16461;BME280;8341;42.048;24.650;2023-03-15T00:33:44;96306.34;;;5.53;61.02
16461;BME280;8341;42.048;24.650;2023-03-15T00:36:12;96318.97;;;5.47;61.39
16461;BME280;8341;42.048;24.650;2023-03-15T00:38:40;96304.25;;;5.48;61.37
16461;BME280;8341;42.048;24.650;2023-03-15T00:41:09;96308.78;;;5.42;62.98
16461;BME280;8341;42.048;24.650;2023-03-15T00:43:36;96296.09;;;5.34;62.16
16461;BME280;8341;42.048;24.650;2023-03-15T00:46:04;96300.56;;;5.37;61.39
16461;BME280;8341;42.048;24.650;2023-03-15T00:48:31;96290.97;;;5.36;60.77
16461;BME280;8341;42.048;24.650;2023-03-15T00:51:04;96291.53;;;5.40;61.66
16461;BME280;8341;42.048;24.650;2023-03-15T00:53:32;96301.59;;;5.39;62.53
16461;BME280;8341;42.048;24.650;2023-03-15T00:56:03;96300.47;;;5.31;61.91
16461;BME280;8341;42.048;24.650;2023-03-15T00:58:30;96292.16;;;5.11;60.75
16461;BME280;8341;42.048;24.650;2023-03-15T01:00:57;96292.50;;;5.04;61.47
16461;BME280;8341;42.048;24.650;2023-03-15T01:03:24;96291.19;;;4.99;62.29
16461;BME280;8341;42.048;24.650;2023-03-15T01:05:50;96292.16;;;5.11;61.81
16461;BME280;8341;42.048;24.650;2023-03-15T01:08:17;96289.22;;;5.00;62.22
16461;BME280;8341;42.048;24.650;2023-03-15T01:10:45;96287.28;;;5.00;63.37
16461;BME280;8341;42.048;24.650;2023-03-15T01:13:12;96295.06;;;4.98;63.15
16461;BME280;8341;42.048;24.650;2023-03-15T01:15:39;96285.69;;;4.85;63.59
16461;BME280;8341;42.048;24.650;2023-03-15T01:18:06;96291.22;;;4.90;63.85
16461;BME280;8341;42.048;24.650;2023-03-15T01:20:32;96283.31;;;4.78;63.59
16461;BME280;8341;42.048;24.650;2023-03-15T01:22:59;96283.63;;;4.80;62.78
16461;BME280;8341;42.048;24.650;2023-03-15T01:25:26;96283.63;;;4.80;62.67
16461;BME280;8341;42.048;24.650;2023-03-15T01:27:54;96277.88;;;4.87;61.91
16461;BME280;8341;42.048;24.650;2023-03-15T01:30:21;96257.31;;;4.89;63.13
16461;BME280;8341;42.048;24.650;2023-03-15T01:32:47;96256.84;;;4.91;64.10
16461;BME280;8341;42.048;24.650;2023-03-15T01:35:14;96253.66;;;4.60;64.92
16461;BME280;8341;42.048;24.650;2023-03-15T01:37:41;96248.38;;;4.74;64.05
16461;BME280;8341;42.048;24.650;2023-03-15T01:40:11;96250.31;;;4.74;64.58
16461;BME280;8341;42.048;24.650;2023-03-15T01:46:02;96260.38;;;4.73;64.56
16461;BME280;8341;42.048;24.650;2023-03-15T01:48:34;96256.91;;;4.73;63.53
16461;BME280;8341;42.048;24.650;2023-03-15T01:51:07;96251.94;;;4.48;64.54
16461;BME280;8341;42.048;24.650;2023-03-15T01:53:35;96251.78;;;4.51;63.96
16461;BME280;8341;42.048;24.650;2023-03-15T01:56:04;96263.66;;;4.35;65.93
16461;BME280;8341;42.048;24.650;2023-03-15T01:58:34;96256.16;;;4.39;65.04
16461;BME280;8341;42.048;24.650;2023-03-15T02:01:01;96255.56;;;4.35;64.53
16461;BME280;8341;42.048;24.650;2023-03-15T02:03:30;96260.63;;;4.42;66.20
16461;BME280;8341;42.048;24.650;2023-03-15T02:06:03;96270.81;;;4.57;65.29
16461;BME280;8341;42.048;24.650;2023-03-15T02:08:36;96259.41;;;4.53;66.86
16461;BME280;8341;42.048;24.650;2023-03-15T02:11:05;96260.91;;;4.54;66.12
16461;BME280;8341;42.048;24.650;2023-03-15T02:13:34;96255.50;;;4.54;65.90
16461;BME280;8341;42.048;24.650;2023-03-15T02:16:01;96250.25;;;4.50;65.93
16461;BME280;8341;42.048;24.650;2023-03-15T02:18:31;96247.28;;;4.48;65.78
16461;BME280;8341;42.048;24.650;2023-03-15T02:21:07;96233.66;;;4.42;65.54
16461;BME280;8341;42.048;24.650;2023-03-15T02:23:37;96239.72;;;4.28;65.07
16461;BME280;8341;42.048;24.650;2023-03-15T02:26:15;96233.56;;;4.28;65.11
16461;BME280;8341;42.048;24.650;2023-03-15T02:28:45;96237.31;;;4.21;65.35
16461;BME280;8341;42.048;24.650;2023-03-15T02:31:12;96231.19;;;4.12;65.28
16461;BME280;8341;42.048;24.650;2023-03-15T02:33:42;96241.97;;;4.12;65.63
16461;BME280;8341;42.048;24.650;2023-03-15T02:36:15;96219.97;;;4.04;66.40
16461;BME280;8341;42.048;24.650;2023-03-15T02:38:43;96233.47;;;4.13;66.49
16461;BME280;8341;42.048;24.650;2023-03-15T02:41:10;96224.75;;;4.09;65.95
16461;BME280;8341;42.048;24.650;2023-03-15T02:43:38;96229.09;;;4.07;66.35
16461;BME280;8341;42.048;24.650;2023-03-15T02:46:08;96228.63;;;4.17;65.94
16461;BME280;8341;42.048;24.650;2023-03-15T02:48:36;96227.13;;;4.25;64.76
16461;BME280;8341;42.048;24.650;2023-03-15T02:51:04;96222.63;;;4.22;65.75
16461;BME280;8341;42.048;24.650;2023-03-15T02:53:32;96212.16;;;4.15;66.58
16461;BME280;8341;42.048;24.650;2023-03-15T02:55:59;96213.03;;;4.21;66.82
16461;BME280;8341;42.048;24.650;2023-03-15T02:58:25;96214.25;;;4.20;66.34
16461;BME280;8341;42.048;24.650;2023-03-15T03:00:53;96216.16;;;4.29;66.91
16461;BME280;8341;42.048;24.650;2023-03-15T03:03:21;96216.88;;;4.38;66.67
16461;BME280;8341;42.048;24.650;2023-03-15T03:05:48;96217.63;;;4.39;66.57
16461;BME280;8341;42.048;24.650;2023-03-15T03:08:14;96205.19;;;4.41;66.98
16461;BME280;8341;42.048;24.650;2023-03-15T03:10:41;96205.34;;;4.38;66.60
16461;BME280;8341;42.048;24.650;2023-03-15T03:13:08;96206.66;;;4.42;65.19
16461;BME280;8341;42.048;24.650;2023-03-15T03:15:35;96205.03;;;4.36;65.14
16461;BME280;8341;42.048;24.650;2023-03-15T03:18:02;96202.78;;;4.34;64.73
16461;BME280;8341;42.048;24.650;2023-03-15T03:20:31;96196.19;;;4.35;65.22
16461;BME280;8341;42.048;24.650;2023-03-15T03:22:58;96200.41;;;4.36;65.00
16461;BME280;8341;42.048;24.650;2023-03-15T03:25:30;96192.75;;;4.35;65.76
16461;BME280;8341;42.048;24.650;2023-03-15T03:27:57;96193.50;;;4.35;66.66
16461;BME280;8341;42.048;24.650;2023-03-15T03:30:24;96191.84;;;4.38;66.90
16461;BME280;8341;42.048;24.650;2023-03-15T03:32:50;96189.59;;;4.36;65.35
16461;BME280;8341;42.048;24.650;2023-03-15T03:35:17;96178.47;;;4.43;65.13
16461;BME280;8341;42.048;24.650;2023-03-15T03:37:45;96184.16;;;4.46;65.28
16461;BME280;8341;42.048;24.650;2023-03-15T03:40:12;96176.47;;;4.53;65.41
16461;BME280;8341;42.048;24.650;2023-03-15T03:42:39;96184.41;;;4.57;65.53
16461;BME280;8341;42.048;24.650;2023-03-15T03:45:07;96185.31;;;4.54;66.18
16461;BME280;8341;42.048;24.650;2023-03-15T03:47:34;96188.03;;;4.54;66.30
16461;BME280;8341;42.048;24.650;2023-03-15T03:50:01;96188.78;;;4.54;66.54
16461;BME280;8341;42.048;24.650;2023-03-15T03:52:27;96196.13;;;4.54;66.59
16461;BME280;8341;42.048;24.650;2023-03-15T03:54:56;96187.34;;;4.35;66.33
16461;BME280;8341;42.048;24.650;2023-03-15T03:57:23;96193.09;;;4.19;66.43
16461;BME280;8341;42.048;24.650;2023-03-15T03:59:50;96193.06;;;4.28;65.82
16461;BME280;8341;42.048;24.650;2023-03-15T04:02:17;96198.59;;;4.33;64.79
16461;BME280;8341;42.048;24.650;2023-03-15T04:04:44;96196.19;;;4.35;64.48
16461;BME280;8341;42.048;24.650;2023-03-15T04:07:14;96196.47;;;4.37;64.43
16461;BME280;8341;42.048;24.650;2023-03-15T04:09:41;96182.09;;;4.40;63.84
16461;BME280;8341;42.048;24.650;2023-03-15T04:12:10;96176.84;;;4.37;63.73
16461;BME280;8341;42.048;24.650;2023-03-15T04:14:37;96180.91;;;4.32;64.15
16461;BME280;8341;42.048;24.650;2023-03-15T04:17:03;96174.28;;;4.42;65.70
16461;BME280;8341;42.048;24.650;2023-03-15T04:19:33;96164.22;;;4.43;66.08
16461;BME280;8341;42.048;24.650;2023-03-15T04:21:59;96166.47;;;4.44;68.45
16461;BME280;8341;42.048;24.650;2023-03-15T04:24:31;96152.19;;;4.53;67.26
16461;BME280;8341;42.048;24.650;2023-03-15T04:26:58;96161.47;;;4.52;68.45
16461;BME280;8341;42.048;24.650;2023-03-15T04:29:26;96164.78;;;4.47;67.34
16461;BME280;8341;42.048;24.650;2023-03-15T04:31:53;96161.00;;;4.30;66.77
16461;BME280;8341;42.048;24.650;2023-03-15T04:34:26;96152.41;;;4.31;66.45
16461;BME280;8341;42.048;24.650;2023-03-15T04:36:54;96146.94;;;4.26;67.76
16461;BME280;8341;42.048;24.650;2023-03-15T04:39:21;96166.72;;;4.23;67.03
16461;BME280;8341;42.048;24.650;2023-03-15T04:41:48;96161.69;;;4.39;67.32
16461;BME280;8341;42.048;24.650;2023-03-15T04:44:15;96160.84;;;4.33;67.80
16461;BME280;8341;42.048;24.650;2023-03-15T04:46:43;96171.34;;;4.22;68.09
16461;BME280;8341;42.048;24.650;2023-03-15T04:49:10;96172.53;;;4.30;66.92
16461;BME280;8341;42.048;24.650;2023-03-15T04:51:37;96182.38;;;4.42;66.02
16461;BME280;8341;42.048;24.650;2023-03-15T04:54:04;96183.88;;;4.43;68.38
16461;BME280;8341;42.048;24.650;2023-03-15T04:56:31;96181.41;;;4.55;67.83
16461;BME280;8341;42.048;24.650;2023-03-15T04:58:57;96169.63;;;4.43;67.78
16461;BME280;8341;42.048;24.650;2023-03-15T05:01:27;96163.03;;;4.44;67.42
16461;BME280;8341;42.048;24.650;2023-03-15T05:03:56;96166.19;;;4.42;67.36
16461;BME280;8341;42.048;24.650;2023-03-15T05:06:23;96175.66;;;4.29;66.90
16461;BME280;8341;42.048;24.650;2023-03-15T05:08:50;96177.84;;;4.49;66.72
16461;BME280;8341;42.048;24.650;2023-03-15T05:11:17;96184.41;;;4.57;68.10
16461;BME280;8341;42.048;24.650;2023-03-15T05:13:43;96180.78;;;4.60;66.97
16461;BME280;8341;42.048;24.650;2023-03-15T05:16:10;96185.91;;;4.58;65.84
16461;BME280;8341;42.048;24.650;2023-03-15T05:18:37;96185.56;;;4.65;64.81
16461;BME280;8341;42.048;24.650;2023-03-15T05:21:06;96181.38;;;4.64;64.54
16461;BME280;8341;42.048;24.650;2023-03-15T05:23:33;96189.88;;;4.71;65.81
16461;BME280;8341;42.048;24.650;2023-03-15T05:26:00;96186.72;;;4.73;67.01
16461;BME280;8341;42.048;24.650;2023-03-15T05:28:28;96190.44;;;4.75;66.33
16461;BME280;8341;42.048;24.650;2023-03-15T05:30:56;96186.41;;;4.80;65.58
16461;BME280;8341;42.048;24.650;2023-03-15T05:33:23;96174.72;;;4.74;63.75
16461;BME280;8341;42.048;24.650;2023-03-15T05:35:50;96173.81;;;4.77;63.02
16461;BME280;8341;42.048;24.650;2023-03-15T05:38:22;96176.91;;;4.84;64.51
16461;BME280;8341;42.048;24.650;2023-03-15T05:40:51;96171.31;;;4.88;65.58
16461;BME280;8341;42.048;24.650;2023-03-15T05:43:18;96172.81;;;4.89;65.77
16461;BME280;8341;42.048;24.650;2023-03-15T05:45:45;96179.25;;;4.91;66.61
16461;BME280;8341;42.048;24.650;2023-03-15T05:48:13;96178.19;;;4.98;67.55
16461;BME280;8341;42.048;24.650;2023-03-15T05:50:40;96183.50;;;5.07;67.31
16461;BME280;8341;42.048;24.650;2023-03-15T05:53:07;96175.06;;;5.14;67.47
16461;BME280;8341;42.048;24.650;2023-03-15T05:55:35;96161.63;;;5.43;66.60
16461;BME280;8341;42.048;24.650;2023-03-15T05:58:03;96151.19;;;5.65;65.49
16461;BME280;8341;42.048;24.650;2023-03-15T06:00:29;96157.41;;;5.95;64.64
16461;BME280;8341;42.048;24.650;2023-03-15T06:02:56;96158.75;;;6.20;64.10
16461;BME280;8341;42.048;24.650;2023-03-15T06:05:23;96161.63;;;6.46;62.73
16461;BME280;8341;42.048;24.650;2023-03-15T06:07:50;96163.88;;;6.32;58.76
16461;BME280;8341;42.048;24.650;2023-03-15T06:10:17;96161.19;;;6.67;59.34
16461;BME280;8341;42.048;24.650;2023-03-15T06:12:45;96159.03;;;6.91;59.33
16461;BME280;8341;42.048;24.650;2023-03-15T06:15:12;96161.75;;;7.12;58.45
16461;BME280;8341;42.048;24.650;2023-03-15T06:17:39;96164.19;;;7.10;58.37
16461;BME280;8341;42.048;24.650;2023-03-15T06:20:06;96168.69;;;6.58;57.95
16461;BME280;8341;42.048;24.650;2023-03-15T06:22:33;96161.19;;;5.74;62.44
16461;BME280;8341;42.048;24.650;2023-03-15T06:24:59;96151.19;;;5.65;63.29
16461;BME280;8341;42.048;24.650;2023-03-15T06:27:27;96152.75;;;5.04;67.01
16461;BME280;8341;42.048;24.650;2023-03-15T06:29:56;96153.38;;;5.23;66.25
16461;BME280;8341;42.048;24.650;2023-03-15T06:32:22;96149.13;;;5.31;65.79
16461;BME280;8341;42.048;24.650;2023-03-15T06:34:49;96153.94;;;5.27;66.26
16461;BME280;8341;42.048;24.650;2023-03-15T06:37:16;96168.44;;;5.53;64.59
16461;BME280;8341;42.048;24.650;2023-03-15T06:39:43;96158.91;;;5.58;65.75
16461;BME280;8341;42.048;24.650;2023-03-15T06:42:10;96178.06;;;5.84;64.06
16461;BME280;8341;42.048;24.650;2023-03-15T06:44:37;96172.47;;;5.73;64.09
16461;BME280;8341;42.048;24.650;2023-03-15T06:47:07;96167.25;;;5.69;63.60
16461;BME280;8341;42.048;24.650;2023-03-15T06:49:34;96175.22;;;5.87;61.29
16461;BME280;8341;42.048;24.650;2023-03-15T06:52:01;96171.75;;;6.16;60.46
16461;BME280;8341;42.048;24.650;2023-03-15T06:54:28;96168.53;;;6.32;60.01
16461;BME280;8341;42.048;24.650;2023-03-15T06:56:55;96168.31;;;6.50;59.47
16461;BME280;8341;42.048;24.650;2023-03-15T06:59:22;96165.31;;;5.99;61.64
16461;BME280;8341;42.048;24.650;2023-03-15T07:01:49;96175.09;;;5.82;63.02
16461;BME280;8341;42.048;24.650;2023-03-15T07:04:17;96160.09;;;5.95;63.98
16461;BME280;8341;42.048;24.650;2023-03-15T07:06:44;96167.53;;;6.29;62.89
16461;BME280;8341;42.048;24.650;2023-03-15T07:09:11;96163.66;;;6.51;61.55
16461;BME280;8341;42.048;24.650;2023-03-15T07:11:37;96163.75;;;5.92;64.41
16461;BME280;8341;42.048;24.650;2023-03-15T07:14:04;96165.94;;;6.23;63.67
16461;BME280;8341;42.048;24.650;2023-03-15T07:16:31;96169.91;;;5.93;64.45
16461;BME280;8341;42.048;24.650;2023-03-15T07:18:58;96165.63;;;6.01;64.64
16461;BME280;8341;42.048;24.650;2023-03-15T07:21:26;96160.28;;;6.21;65.11
16461;BME280;8341;42.048;24.650;2023-03-15T07:23:53;96155.31;;;6.34;64.83
16461;BME280;8341;42.048;24.650;2023-03-15T07:26:20;96149.88;;;6.34;65.16
16461;BME280;8341;42.048;24.650;2023-03-15T07:28:47;96157.66;;;6.26;65.84
16461;BME280;8341;42.048;24.650;2023-03-15T07:31:14;96153.28;;;5.85;67.13
16461;BME280;8341;42.048;24.650;2023-03-15T07:33:42;96159.91;;;5.99;67.00
16461;BME280;8341;42.048;24.650;2023-03-15T07:36:08;96149.72;;;6.23;67.82
16461;BME280;8341;42.048;24.650;2023-03-15T07:38:37;96145.78;;;6.24;68.00
16461;BME280;8341;42.048;24.650;2023-03-15T07:41:05;96145.41;;;6.31;68.67
16461;BME280;8341;42.048;24.650;2023-03-15T07:43:33;96145.81;;;6.09;71.22
16461;BME280;8341;42.048;24.650;2023-03-15T07:46:00;96145.50;;;6.37;70.53
16461;BME280;8341;42.048;24.650;2023-03-15T07:48:26;96149.50;;;6.41;70.66
16461;BME280;8341;42.048;24.650;2023-03-15T07:50:55;96138.03;;;6.17;71.94
16461;BME280;8341;42.048;24.650;2023-03-15T07:53:22;96154.13;;;6.55;70.96
16461;BME280;8341;42.048;24.650;2023-03-15T07:55:50;96152.06;;;6.65;69.98
16461;BME280;8341;42.048;24.650;2023-03-15T07:58:16;96144.94;;;6.67;69.88
16461;BME280;8341;42.048;24.650;2023-03-15T08:00:43;96143.09;;;6.59;70.49
16461;BME280;8341;42.048;24.650;2023-03-15T08:03:10;96143.88;;;6.79;69.91
16461;BME280;8341;42.048;24.650;2023-03-15T08:05:37;96128.69;;;6.87;68.57
16461;BME280;8341;42.048;24.650;2023-03-15T08:08:05;96119.53;;;6.65;70.09
16461;BME280;8341;42.048;24.650;2023-03-15T08:10:31;96117.16;;;6.52;71.67
16461;BME280;8341;42.048;24.650;2023-03-15T08:13:00;96122.25;;;6.30;70.63
16461;BME280;8341;42.048;24.650;2023-03-15T08:15:27;96121.34;;;6.04;73.09
16461;BME280;8341;42.048;24.650;2023-03-15T08:17:53;96127.22;;;6.17;72.76
16461;BME280;8341;42.048;24.650;2023-03-15T08:20:20;96124.28;;;6.35;72.42
16461;BME280;8341;42.048;24.650;2023-03-15T08:22:48;96125.34;;;6.58;72.12
16461;BME280;8341;42.048;24.650;2023-03-15T08:25:18;96117.97;;;6.58;69.89
16461;BME280;8341;42.048;24.650;2023-03-15T08:27:45;96112.78;;;6.75;68.14
16461;BME280;8341;42.048;24.650;2023-03-15T08:30:15;96106.88;;;6.97;67.38
16461;BME280;8341;42.048;24.650;2023-03-15T08:32:44;96106.88;;;6.97;66.05
16461;BME280;8341;42.048;24.650;2023-03-15T08:35:12;96104.97;;;7.03;64.96
16461;BME280;8341;42.048;24.650;2023-03-15T08:37:39;96093.00;;;6.89;64.31
16461;BME280;8341;42.048;24.650;2023-03-15T08:40:07;96081.78;;;7.02;64.58
16461;BME280;8341;42.048;24.650;2023-03-15T08:42:35;96078.53;;;7.18;65.18
16461;BME280;8341;42.048;24.650;2023-03-15T08:45:03;96082.38;;;7.57;64.74
16461;BME280;8341;42.048;24.650;2023-03-15T08:47:33;96084.88;;;7.92;63.95
16461;BME280;8341;42.048;24.650;2023-03-15T08:50:00;96084.53;;;8.10;60.62
16461;BME280;8341;42.048;24.650;2023-03-15T08:52:30;96083.59;;;8.18;59.96
16461;BME280;8341;42.048;24.650;2023-03-15T08:54:57;96088.94;;;8.39;60.78
16461;BME280;8341;42.048;24.650;2023-03-15T08:57:24;96087.63;;;7.97;60.03
16461;BME280;8341;42.048;24.650;2023-03-15T08:59:51;96083.28;;;7.48;62.90
16461;BME280;8341;42.048;24.650;2023-03-15T09:02:18;96084.47;;;7.42;64.43
16461;BME280;8341;42.048;24.650;2023-03-15T09:04:48;96095.66;;;7.55;64.58
16461;BME280;8341;42.048;24.650;2023-03-15T09:07:14;96077.34;;;7.24;65.64
16461;BME280;8341;42.048;24.650;2023-03-15T09:09:41;96079.81;;;7.48;64.94
16461;BME280;8341;42.048;24.650;2023-03-15T09:12:13;96075.72;;;7.58;65.61
16461;BME280;8341;42.048;24.650;2023-03-15T09:14:40;96079.78;;;7.74;64.69
16461;BME280;8341;42.048;24.650;2023-03-15T09:17:07;96071.34;;;7.97;62.90
16461;BME280;8341;42.048;24.650;2023-03-15T09:19:34;96069.69;;;8.05;62.42
16461;BME280;8341;42.048;24.650;2023-03-15T09:22:02;96056.47;;;7.87;61.32
16461;BME280;8341;42.048;24.650;2023-03-15T09:24:29;96065.22;;;8.34;61.12
16461;BME280;8341;42.048;24.650;2023-03-15T09:26:56;96063.06;;;8.49;58.78
16461;BME280;8341;42.048;24.650;2023-03-15T09:29:23;96065.94;;;8.82;58.52
16461;BME280;8341;42.048;24.650;2023-03-15T09:31:50;96063.16;;;8.71;58.67
16461;BME280;8341;42.048;24.650;2023-03-15T09:34:17;96062.91;;;8.69;58.91
16461;BME280;8341;42.048;24.650;2023-03-15T09:36:43;96059.84;;;9.04;59.22
16461;BME280;8341;42.048;24.650;2023-03-15T09:39:18;96065.72;;;8.86;59.22
16461;BME280;8341;42.048;24.650;2023-03-15T09:41:47;96066.00;;;9.04;58.69
16461;BME280;8341;42.048;24.650;2023-03-15T11:41:46;96018.50;;;11.88;47.87
16461;BME280;8341;42.048;24.650;2023-03-15T11:44:24;95999.22;;;11.40;49.69
16461;BME280;8341;42.048;24.650;2023-03-15T11:46:54;95999.38;;;11.53;48.73
16461;BME280;8341;42.048;24.650;2023-03-15T11:49:30;95982.91;;;11.64;50.19
16461;BME280;8341;42.048;24.650;2023-03-15T11:51:58;95985.25;;;11.84;48.51
16461;BME280;8341;42.048;24.650;2023-03-15T11:54:28;95988.25;;;11.10;48.36
16461;BME280;8341;42.048;24.650;2023-03-15T11:57:00;95989.03;;;11.05;49.42
16461;BME280;8341;42.048;24.650;2023-03-15T11:59:30;95988.63;;;10.90;49.58
16461;BME280;8341;42.048;24.650;2023-03-15T12:01:59;95980.38;;;11.01;49.80
16461;BME280;8341;42.048;24.650;2023-03-15T12:04:44;95979.47;;;10.82;49.83
16461;BME280;8341;42.048;24.650;2023-03-15T12:07:39;95974.34;;;10.73;49.61
16461;BME280;8341;42.048;24.650;2023-03-15T12:10:42;95972.69;;;11.00;48.99
16461;BME280;8341;42.048;24.650;2023-03-15T12:13:19;95971.63;;;11.14;48.78
16461;BME280;8341;42.048;24.650;2023-03-15T12:15:48;95960.72;;;11.44;48.20
16461;BME280;8341;42.048;24.650;2023-03-15T12:18:18;95965.94;;;11.77;47.92
16461;BME280;8341;42.048;24.650;2023-03-15T12:20:50;95971.13;;;11.80;47.00
16461;BME280;8341;42.048;24.650;2023-03-15T12:23:28;95963.41;;;12.09;47.81
16461;BME280;8341;42.048;24.650;2023-03-15T12:26:04;95962.72;;;12.27;47.42
16461;BME280;8341;42.048;24.650;2023-03-15T12:28:36;95964.50;;;12.43;47.25
16461;BME280;8341;42.048;24.650;2023-03-15T12:31:04;95953.41;;;12.35;46.65
16461;BME280;8341;42.048;24.650;2023-03-15T12:33:42;95947.94;;;12.35;46.81
16461;BME280;8341;42.048;24.650;2023-03-15T12:36:17;95947.66;;;12.39;46.91
16461;BME280;8341;42.048;24.650;2023-03-15T12:38:54;95949.66;;;12.38;47.21
16461;BME280;8341;42.048;24.650;2023-03-15T12:41:37;95940.28;;;12.34;46.79
16461;BME280;8341;42.048;24.650;2023-03-15T12:44:23;95936.28;;;12.35;46.51
16461;BME280;8341;42.048;24.650;2023-03-15T12:46:56;95944.94;;;12.39;46.99
16461;BME280;8341;42.048;24.650;2023-03-15T12:49:33;95952.59;;;12.40;46.58
16461;BME280;8341;42.048;24.650;2023-03-15T12:52:02;95951.59;;;12.43;46.20
16461;BME280;8341;42.048;24.650;2023-03-15T12:54:36;95940.16;;;12.45;46.21
16461;BME280;8341;42.048;24.650;2023-03-15T12:57:09;95943.38;;;12.43;46.30
16461;BME280;8341;42.048;24.650;2023-03-15T12:59:43;95945.31;;;12.48;46.10
16461;BME280;8341;42.048;24.650;2023-03-15T13:02:28;95950.50;;;12.52;46.14
16461;BME280;8341;42.048;24.650;2023-03-15T13:05:00;95940.31;;;12.52;45.18
16461;BME280;8341;42.048;24.650;2023-03-15T13:07:36;95934.53;;;12.56;44.64
16461;BME280;8341;42.048;24.650;2023-03-15T13:10:35;95928.09;;;12.53;45.60
16461;BME280;8341;42.048;24.650;2023-03-15T13:13:09;95930.97;;;12.61;45.18
16461;BME280;8341;42.048;24.650;2023-03-15T13:15:43;95937.06;;;12.73;45.66
16461;BME280;8341;42.048;24.650;2023-03-15T13:18:15;95929.97;;;12.83;45.09
16461;BME280;8341;42.048;24.650;2023-03-15T13:20:57;95924.63;;;12.90;45.39
16461;BME280;8341;42.048;24.650;2023-03-15T13:23:27;95935.44;;;13.01;44.83
16461;BME280;8341;42.048;24.650;2023-03-15T13:26:02;95919.59;;;12.94;45.34
16461;BME280;8341;42.048;24.650;2023-03-15T13:28:37;95913.22;;;13.05;44.66
16461;BME280;8341;42.048;24.650;2023-03-15T13:31:21;95932.13;;;13.08;45.15
16461;BME280;8341;42.048;24.650;2023-03-15T13:33:50;95926.84;;;13.10;44.89
16461;BME280;8341;42.048;24.650;2023-03-15T13:36:22;95918.06;;;12.99;43.84
16461;BME280;8341;42.048;24.650;2023-03-15T13:38:52;95910.81;;;13.01;44.54
16461;BME280;8341;42.048;24.650;2023-03-15T13:41:21;95906.28;;;13.04;45.55
16461;BME280;8341;42.048;24.650;2023-03-15T13:43:50;95918.69;;;13.24;45.21
16461;BME280;8341;42.048;24.650;2023-03-15T13:46:19;95910.88;;;13.14;43.70
16461;BME280;8341;42.048;24.650;2023-03-15T13:48:49;95912.47;;;13.23;43.41
16461;BME280;8341;42.048;24.650;2023-03-15T13:51:19;95902.69;;;13.14;43.07
16461;BME280;8341;42.048;24.650;2023-03-15T13:53:48;95910.28;;;12.84;43.28
16461;BME280;8341;42.048;24.650;2023-03-15T13:56:19;95904.91;;;12.60;44.47
16461;BME280;8341;42.048;24.650;2023-03-15T13:58:48;95896.63;;;12.66;44.03
16461;BME280;8341;42.048;24.650;2023-03-15T14:01:16;95887.91;;;12.67;44.18
16461;BME280;8341;42.048;24.650;2023-03-15T14:03:51;95884.13;;;12.70;44.71
16461;BME280;8341;42.048;24.650;2023-03-15T14:06:22;95886.78;;;12.76;44.15
16461;BME280;8341;42.048;24.650;2023-03-15T14:08:51;95892.56;;;12.72;44.39
16461;BME280;8341;42.048;24.650;2023-03-15T14:11:32;95882.81;;;12.58;44.91
16461;BME280;8341;42.048;24.650;2023-03-15T14:14:14;95880.59;;;12.56;44.82
16461;BME280;8341;42.048;24.650;2023-03-15T14:16:46;95887.22;;;12.80;45.54
16461;BME280;8341;42.048;24.650;2023-03-15T14:19:16;95892.84;;;12.87;46.15
16461;BME280;8341;42.048;24.650;2023-03-15T14:21:46;95891.50;;;12.94;44.30
16461;BME280;8341;42.048;24.650;2023-03-15T14:24:15;95883.75;;;12.79;44.98
16461;BME280;8341;42.048;24.650;2023-03-15T14:26:43;95898.97;;;12.75;44.21
16461;BME280;8341;42.048;24.650;2023-03-15T14:29:16;95896.59;;;13.03;45.03
16461;BME280;8341;42.048;24.650;2023-03-15T14:31:47;95897.06;;;12.70;44.53
16461;BME280;8341;42.048;24.650;2023-03-15T14:34:22;95896.09;;;12.67;44.56
16461;BME280;8341;42.048;24.650;2023-03-15T14:36:50;95891.25;;;12.60;44.87
16461;BME280;8341;42.048;24.650;2023-03-15T14:39:24;95877.63;;;12.73;45.09
16461;BME280;8341;42.048;24.650;2023-03-15T14:41:50;95884.56;;;12.74;45.11
16461;BME280;8341;42.048;24.650;2023-03-15T14:44:17;95896.63;;;12.66;44.67
16461;BME280;8341;42.048;24.650;2023-03-15T14:46:44;95887.81;;;12.54;45.66
16461;BME280;8341;42.048;24.650;2023-03-15T14:49:12;95891.22;;;12.41;46.17
16461;BME280;8341;42.048;24.650;2023-03-15T14:51:40;95905.09;;;12.25;46.40
16461;BME280;8341;42.048;24.650;2023-03-15T14:54:09;95903.91;;;12.20;46.89
16461;BME280;8341;42.048;24.650;2023-03-15T14:56:37;95908.28;;;12.05;46.65
16461;BME280;8341;42.048;24.650;2023-03-15T14:59:09;95898.81;;;12.11;46.46
16461;BME280;8341;42.048;24.650;2023-03-15T15:01:37;95895.53;;;12.13;46.99
16461;BME280;8341;42.048;24.650;2023-03-15T15:04:08;95898.84;;;12.06;46.92
16461;BME280;8341;42.048;24.650;2023-03-15T15:06:35;95902.50;;;11.89;47.80
16461;BME280;8341;42.048;24.650;2023-03-15T15:09:04;95909.91;;;11.94;48.00
16461;BME280;8341;42.048;24.650;2023-03-15T15:11:31;95902.38;;;12.01;48.28
16461;BME280;8341;42.048;24.650;2023-03-15T15:13:58;95903.47;;;11.92;47.95
16461;BME280;8341;42.048;24.650;2023-03-15T15:16:25;95906.03;;;11.84;48.02
16461;BME280;8341;42.048;24.650;2023-03-15T15:18:52;95909.94;;;11.89;47.77